Latest Weather Observations for Lake Julius

IDQ60801

Issued at 8:05 pm EST Saturday 22 November 2014 (issued every 30 minutes, with the page automatically refreshed every 10 minutes)

About weather observations | Map of weather stations | Latest weather observations for QLD | Other Formats
Station Details ID: 029181 Name: LAKE JULIUS AWS Lat: -20.12 Lon: 139.73 Height: 237.0 m
Data from the previous 72 hours. | See also: Recent months for locations in Queensland
Date/Time
EST
Temp
°C
App
Temp
°C
Dew
Point
Rel
Hum
%
Delta-T
°C
Wind Press
QNH
hPa
Press
MSL
hPa
Rain
since 9 am
mm
Dir
 
Spd
km/h
Gust
km/h
Spd
kts
Gust
kts
22/08:00pm 34.6 35.1 15.5 32 12.1 SSW 7 13 4 7 - - 0.0
22/07:30pm 35.0 34.5 14.8 29 12.7 SSW 11 19 6 10 - - 0.0
22/07:00pm 35.2 35.1 15.0 30 12.7 SSW 9 17 5 9 - - 0.0
22/06:30pm 35.5 35.1 15.3 30 12.8 SSW 11 20 6 11 - - 0.0
22/06:00pm 36.0 33.5 15.2 29 13.1 SSW 22 32 12 17 - - 0.0
22/05:36pm 37.4 33.8 15.2 26 14.1 S 28 43 15 23 - - 0.0
22/05:30pm 38.7 38.1 14.5 24 15.3 SW 11 20 6 11 - - 0.0
22/05:00pm 38.8 37.7 13.2 21 15.9 W 11 20 6 11 - - 0.0
22/04:30pm 39.2 36.5 13.6 22 16.0 SW 20 24 11 13 - - 0.0
22/04:00pm 40.2 40.1 12.1 19 17.3 ENE 4 9 2 5 - - 0.0
22/03:30pm 39.8 39.0 11.8 19 17.1 SSW 7 13 4 7 - - 0.0
22/03:00pm 40.3 39.7 12.2 19 17.3 N 7 15 4 8 - - 0.0
22/02:30pm 39.7 38.1 11.7 19 17.1 NW 11 26 6 14 - - 0.0
22/02:00pm 39.9 39.4 11.9 19 17.1 WNW 6 13 3 7 - - 0.0
22/01:30pm 38.7 38.0 13.2 22 15.8 N 9 17 5 9 - - 0.0
22/01:00pm 38.9 38.5 14.0 23 15.6 N 9 19 5 10 - - 0.0
22/12:30pm 38.5 38.0 15.0 25 14.9 N 11 24 6 13 - - 0.0
22/12:00pm 37.9 38.2 15.1 26 14.5 NNE 7 19 4 10 - - 0.0
22/11:30am 37.4 37.2 15.8 27 13.8 N 11 20 6 11 - - 0.0
22/11:00am 36.9 37.2 15.9 28 13.4 NNW 9 19 5 10 - - 0.0
22/10:30am 35.5 34.9 14.7 28 13.0 NNW 11 24 6 13 - - 0.0
22/10:00am 34.5 33.6 14.9 31 12.3 WNW 13 19 7 10 - - 0.0
22/09:30am 34.0 33.1 15.9 33 11.5 WNW 15 24 8 13 - - 0.0
22/09:00am 31.7 33.5 18.7 46 8.5 SSW 7 13 4 7 - - 1.6
22/08:30am 29.4 31.8 20.0 57 6.2 S 7 11 4 6 - - 1.6
22/08:00am 28.5 30.8 19.4 57 6.0 SW 6 11 3 6 - - 1.6
22/07:30am 27.0 29.3 19.9 65 4.7 SSW 7 11 4 6 - - 1.6
22/07:00am 26.6 29.8 20.4 69 4.1 SSW 4 7 2 4 - - 1.6
22/06:30am 25.7 28.8 20.3 72 3.6 SW 4 6 2 3 - - 1.6
22/06:00am 25.4 28.6 20.4 74 3.3 S 4 7 2 4 - - 1.6
22/05:30am 25.4 28.1 20.2 73 3.4 ESE 6 7 3 4 - - 1.6
22/05:00am 25.9 28.8 19.8 69 4.0 S 4 6 2 3 - - 1.6
22/04:30am 26.3 27.8 18.9 63 4.8 SW 9 13 5 7 - - 1.6
22/04:00am 26.3 28.7 18.9 63 4.8 SSW 4 6 2 3 - - 1.6
22/03:30am 26.0 28.1 19.4 67 4.3 N 7 11 4 6 - - 1.6
22/03:00am 25.4 27.5 20.2 73 3.4 NNE 9 17 5 9 - - 1.6
22/02:30am 25.5 25.8 20.3 73 3.4 N 19 32 10 17 - - 1.6
22/02:00am 25.1 25.7 21.0 78 2.7 NNE 19 37 10 20 - - 1.6
22/01:30am 25.0 26.6 21.5 81 2.3 N 15 24 8 13 - - 0.6
22/01:00am 26.2 27.5 20.8 72 3.6 N 15 22 8 12 - - 0.0
22/12:30am 26.5 25.6 20.6 70 3.9 NNE 26 39 14 21 - - 0.0
22/12:00am 28.7 28.9 19.3 56 6.2 NNE 17 26 9 14 - - 0.0
 
Date/Time
EST
Temp
°C
App
Temp
°C
Dew
Point
Rel
Hum
%
Delta-T
°C
Wind Press
QNH
hPa
Press
MSL
hPa
Rain
since 9 am
mm
Dir
 
Spd
km/h
Gust
km/h
Spd
kts
Gust
kts
21/11:30pm 29.4 28.8 18.8 53 6.9 NNE 20 30 11 16 - - 0.0
21/11:00pm 31.9 31.4 17.0 41 9.5 NE 15 39 8 21 - - 0.0
21/10:30pm 32.6 32.5 16.0 36 10.5 N 11 17 6 9 - - 0.0
21/10:00pm 32.6 34.1 15.6 36 10.7 NNE 2 6 1 3 - - 0.0
21/09:30pm 32.7 33.4 15.7 36 10.7 SSW 6 9 3 5 - - 0.0
21/09:00pm 32.6 33.8 16.0 36 10.5 SSW 4 13 2 7 - - 0.0
21/08:30pm 33.5 33.0 15.9 34 11.1 SE 13 32 7 17 - - 0.0
21/08:00pm 35.5 34.6 12.5 25 14.0 SSE 9 15 5 8 - - 0.0
21/07:30pm 35.6 35.1 12.5 24 14.0 WNW 7 9 4 5 - - 0.0
21/07:00pm 36.0 35.8 12.9 25 14.1 WNW 6 11 3 6 - - 0.0
21/06:30pm 36.4 35.7 13.2 25 14.3 WNW 9 13 5 7 - - 0.0
21/06:00pm 36.9 35.6 12.4 23 14.9 W 11 17 6 9 - - 0.0
21/05:30pm 37.4 36.8 13.4 24 14.9 W 9 15 5 8 - - 0.0
21/05:00pm 37.4 37.1 12.8 23 15.1 SSW 6 9 3 5 - - 0.0
21/04:30pm 36.7 36.7 13.5 25 14.4 NW 6 9 3 5 - - 0.0
21/04:00pm 37.3 35.9 13.3 23 14.8 N 13 24 7 13 - - 0.0
21/03:30pm 37.6 33.6 14.2 25 14.7 N 28 61 15 33 - - 0.0
21/03:22pm 37.6 33.2 14.2 25 14.7 N 30 61 16 33 - - 0.0
21/03:00pm 39.0 38.7 15.4 25 15.1 SSW 11 24 6 13 - - 0.0
21/02:30pm 39.6 37.9 14.6 23 15.9 SSW 17 30 9 16 - - 0.0
21/02:00pm 39.5 38.1 14.5 23 15.8 SW 15 26 8 14 - - 0.0
21/01:30pm 39.3 38.6 14.3 22 15.8 WNW 11 19 6 10 - - 0.0
21/01:00pm 41.1 38.7 13.7 20 17.2 N 19 28 10 15 - - 0.0
21/12:30pm 40.6 40.8 14.7 21 16.5 NNW 7 19 4 10 - - 0.0
21/12:00pm 40.3 39.9 15.2 23 16.1 NNW 11 32 6 17 - - 0.0
21/11:30am 38.9 38.2 15.3 25 15.1 N 13 30 7 16 - - 0.0
21/11:00am 38.7 37.9 15.1 24 15.0 NNW 13 22 7 12 - - 0.0
21/10:30am 37.8 36.0 16.1 27 14.0 N 20 37 11 20 - - 0.0
21/10:00am 37.9 37.1 16.2 27 14.0 N 15 26 8 14 - - 0.0
21/09:30am 37.3 36.4 16.8 29 13.3 N 17 28 9 15 - - 0.0
21/09:00am 36.2 35.9 17.4 33 12.3 NNW 15 26 8 14 - - 0.0
21/08:30am 35.0 34.5 17.7 36 11.3 NNW 17 24 9 13 - - 0.0
21/08:00am 33.9 34.3 17.2 37 10.8 NNW 11 24 6 13 - - 0.0
21/07:30am 32.6 35.1 19.1 44 8.9 N 4 9 2 5 - - 0.0
21/07:00am 31.9 36.0 20.8 51 7.5 CALM 0 0 0 0 - - 0.0
21/06:30am 30.6 34.7 20.8 56 6.6 CALM 0 0 0 0 - - 0.0
21/06:00am 30.0 34.1 20.8 57 6.2 CALM 0 0 0 0 - - 0.0
21/05:30am 30.4 34.2 20.9 57 6.4 NNW 2 6 1 3 - - 0.0
21/05:00am 30.7 34.5 20.9 56 6.6 WNW 2 6 1 3 - - 0.0
21/04:30am 31.0 33.8 20.9 55 6.8 N 7 11 4 6 - - 0.0
21/04:00am 31.1 34.9 21.0 55 6.8 NW 2 6 1 3 - - 0.0
21/03:30am 31.4 35.0 21.3 55 6.8 NW 4 9 2 5 - - 0.0
21/03:00am 31.6 34.8 21.7 55 6.7 NNW 7 13 4 7 - - 0.0
21/02:30am 31.9 34.4 21.7 54 7.0 NNW 11 17 6 9 - - 0.0
21/02:00am 32.2 34.7 21.7 54 7.2 NNW 11 20 6 11 - - 0.0
21/01:30am 32.5 35.1 22.0 54 7.2 NNW 11 19 6 10 - - 0.0
21/01:00am 32.9 35.5 22.0 52 7.5 NNW 11 22 6 12 - - 0.0
21/12:30am 33.3 36.6 21.8 51 7.9 N 7 15 4 8 - - 0.0
21/12:00am 33.5 35.8 22.0 51 7.9 N 13 20 7 11 - - 0.0
 
Date/Time
EST
Temp
°C
App
Temp
°C
Dew
Point
Rel
Hum
%
Delta-T
°C
Wind Press
QNH
hPa
Press
MSL
hPa
Rain
since 9 am
mm
Dir
 
Spd
km/h
Gust
km/h
Spd
kts
Gust
kts
20/11:30pm 33.8 35.5 21.6 49 8.3 N 15 24 8 13 - - 0.0
20/11:00pm 34.6 35.9 20.9 44 9.3 N 15 22 8 12 - - 0.0
20/10:30pm 35.5 35.7 19.4 38 10.8 N 17 30 9 16 - - 0.0
20/10:00pm 36.4 35.4 18.0 33 12.1 N 20 35 11 19 - - 0.0
20/09:30pm 37.2 36.0 16.2 29 13.5 N 17 24 9 13 - - 0.0
20/09:00pm 38.2 36.9 11.3 20 16.2 N 9 11 5 6 - - 0.0
20/08:30pm 38.4 37.3 10.7 19 16.6 NNE 7 9 4 5 - - 0.0
20/08:00pm 39.0 37.8 10.4 18 17.1 NNE 7 11 4 6 - - 0.0
20/07:30pm 39.4 38.1 9.8 17 17.5 NNE 7 9 4 5 - - 0.0
20/07:00pm 40.0 38.2 9.4 16 18.1 NE 9 15 5 8 - - 0.0
20/06:30pm 40.8 38.9 9.1 15 18.7 E 9 15 5 8 - - 0.0
20/06:00pm 41.7 39.8 6.5 12 20.1 NE 6 9 3 5 - - 0.0
20/05:30pm 41.7 38.9 5.3 11 20.4 E 9 19 5 10 - - 0.0
20/05:00pm 41.9 39.0 6.7 12 20.2 NE 11 17 6 9 - - 0.0
20/04:30pm 41.9 39.3 7.8 13 19.8 E 11 17 6 9 - - 0.0
20/04:00pm 42.2 39.8 6.9 12 20.3 NNW 9 17 5 9 - - 0.0
20/03:30pm 42.4 40.0 7.0 12 20.4 NNE 9 17 5 9 - - 0.0
20/03:00pm 42.0 39.4 7.9 13 19.9 NNE 11 20 6 11 - - 0.0
20/02:30pm 42.3 40.5 8.1 13 20.0 N 7 13 4 7 - - 0.0
20/02:00pm 42.0 40.2 7.9 13 19.9 NNE 7 17 4 9 - - 0.0
20/01:30pm 41.4 37.8 8.5 14 19.3 ENE 17 26 9 14 - - 0.0
20/01:00pm 41.3 39.1 9.5 15 18.9 N 11 20 6 11 - - 0.0
20/12:30pm 40.7 37.5 10.0 16 18.3 N 17 24 9 13 - - 0.0
20/12:00pm 39.4 35.5 10.7 18 17.2 NNE 22 30 12 16 - - 0.0
20/11:30am 39.7 36.5 10.1 17 17.6 NE 17 28 9 15 - - 0.0
20/11:00am 40.5 37.2 4.3 11 19.9 NE 11 24 6 13 - - 0.0
20/10:30am 40.5 36.9 3.0 10 20.2 E 11 20 6 11 - - 0.0
20/10:00am 38.7 34.4 3.0 11 19.1 NE 15 26 8 14 - - 0.0
20/09:30am 37.9 33.4 2.4 11 18.7 ENE 15 28 8 15 - - 0.0
20/09:00am 37.3 33.0 3.1 12 18.2 ENE 15 20 8 11 - - 0.0
20/08:30am 35.7 33.6 6.0 16 16.4 NE 6 9 3 5 - - 0.0
20/08:00am 33.4 33.5 10.1 24 13.5 CALM 0 0 0 0 - - 0.0
20/07:30am 30.9 31.5 11.8 31 11.3 CALM 0 0 0 0 - - 0.0
20/07:00am 27.5 28.1 11.9 38 9.1 CALM 0 0 0 0 - - 0.0
20/06:30am 27.0 27.0 11.1 37 9.1 SW 2 2 1 1 - - 0.0
20/06:00am 25.9 25.8 12.0 42 8.0 SSW 4 7 2 4 - - 0.0
20/05:30am 26.3 25.4 10.5 37 8.9 SSW 6 7 3 4 - - 0.0
20/05:00am 26.8 26.5 8.7 32 10.0 CALM 0 0 0 0 - - 0.0
20/04:30am 27.2 26.6 7.6 29 10.6 CALM 0 0 0 0 - - 0.0
20/04:00am 27.7 27.3 8.1 29 10.7 CALM 0 2 0 1 - - 0.0
20/03:30am 28.4 28.9 12.7 38 9.3 SSW 2 4 1 2 - - 0.0
20/03:00am 29.3 28.7 11.8 34 10.3 SSW 6 9 3 5 - - 0.0
20/02:30am 29.2 28.3 6.0 23 12.3 CALM 0 0 0 0 - - 0.0
20/02:00am 30.1 28.1 6.1 22 12.9 N 6 9 3 5 - - 0.0
20/01:30am 30.4 29.2 6.3 22 13.0 NNE 2 6 1 3 - - 0.0
20/01:00am 31.0 30.0 10.4 28 11.9 SSW 6 9 3 5 - - 0.0
20/12:30am 31.6 30.5 5.2 19 14.1 CALM 0 0 0 0 - - 0.0
20/12:00am 31.5 29.9 6.5 21 13.6 SW 4 6 2 3 - - 0.0
 
Date/Time
EST
Temp
°C
App
Temp
°C
Dew
Point
Rel
Hum
%
Delta-T
°C
Wind Press
QNH
hPa
Press
MSL
hPa
Rain
since 9 am
mm
Dir
 
Spd
km/h
Gust
km/h
Spd
kts
Gust
kts
19/11:30pm 32.2 30.9 7.8 22 13.6 SSW 4 7 2 4 - - 0.0
19/11:00pm 31.7 32.2 13.9 34 10.9 SSW 4 7 2 4 - - 0.0
19/10:30pm 32.3 32.4 14.0 33 11.2 SSW 6 6 3 3 - - 0.0
19/10:00pm 33.7 34.2 11.5 26 13.2 CALM 0 0 0 0 - - 0.0
19/09:30pm 34.8 33.4 3.4 14 16.5 CALM 0 0 0 0 - - 0.0
19/09:00pm 35.3 34.9 9.7 21 14.9 SSW 2 4 1 2 - - 0.0
19/08:30pm 36.1 33.7 4.4 14 17.1 SSW 6 7 3 4 - - 0.0

Other Formats:

Comma delimited format used in spreadsheet applications
http://www.bom.gov.au/fwo/IDQ60801/IDQ60801.94348.axf

JavaScript Object Notation format (JSON) in row-major order
http://www.bom.gov.au/fwo/IDQ60801/IDQ60801.94348.json